Aeroporto :
LOGIN :

Iscrizione | Disclaimer

   EN    FR    IT 

 










Sommario :    VFR   VFR Marginale   IFR   IFR Intensivo   IFR Molto Intensivo
Visibilità : 
Base nubi : 
>= 8 km
>= 3000ft
5 / 8 km
1000 / 3000 ft
1500m / 5 km
500 / 1000 ft
800 / 1500m
200 / 500 ft
< 800m
< 200 ft
Simboli :   Temporali  Nebbia  Neve Forte  Precipitazioni Forti  Vento > 20 kt
SIGMETs :   Varie  Temporali  Ghiacco  Turbolenza  Onda orograficha  Ceneri Vulcaniche






- Altitudine del aeroporto : 506 ft
- Codice IATA : GOT


ESGG - Landvetter

ULTIMO METAR :
  • 021650Z 26025G38KT 9999 SCT034 03/M05 Q0987 R21/29//95

METARs OBSOLETI :
  • 021620Z 26022G38KT 9999 SCT036 04/M03 Q0987 R21/29//95
  • 021550Z 25023G35KT 9999 FEW029 SCT047 BKN066 04/M02 Q0987 R21/29//95
  • 021520Z 26022G37KT 9999 -SHRASN SCT034CB 03/M02 Q0988 R21/29//95
  • 021450Z 26024G39KT 240V300 9999 VCSH FEW014CB BKN021 03/M00 Q0988 R21/29//95
  • 021420Z 25021G33KT 9999 BKN012 04/02 Q0988 R21/19//95

TAF TAF ESGG
Valido dal 02 a 12 ore il 03 a 12 ore UTC


021130Z 0212/0312 23022KT 9999 SCT020 BKN040
TEMPO 0212/0216 23022G40KT SHRA BKN010 BKN030CB
BECMG 0214/0216 27025G46KT
TEMPO 0220/0222 SHRA BKN012 BKN030CB
BECMG 0222/0301 28015G30KT
BECMG 0302/0304 28011KT



MetMap, La meteo Aeronautica in un colpo d'occhio ! - Copyright ORBIFLY Dicembre 2007 - Disclaimer

ORBIFLY MET'MAP TEAM :

Programmazione e sviluppo : Alexandra Zaïnal
Concezione : Baudouin d'Aumeries
Aiuto per la programmazione : Marc-Olivier Méhu
Supporto tecnico e logistico : Manuel Goepfert
Aiuto per la traduzione : Arnaldo La Scala

Contatto : metmap@orbifly.com




FONTI E CREDITI :

   NOAA